sensor_id;sensor_type;location;lat;lon;timestamp;pressure;altitude;pressure_sealevel;temperature;humidity
13033;BME280;6583;42.632;23.298;2023-01-30T00:02:02;72052.25;;;-146.40;78.67
13033;BME280;6583;42.632;23.298;2023-01-30T00:04:28;72068.44;;;-146.40;78.83
13033;BME280;6583;42.632;23.298;2023-01-30T00:06:55;72072.47;;;-146.40;78.96
13033;BME280;6583;42.632;23.298;2023-01-30T00:09:22;72070.47;;;-146.40;79.69
13033;BME280;6583;42.632;23.298;2023-01-30T00:11:48;72066.41;;;-146.40;80.21
13033;BME280;6583;42.632;23.298;2023-01-30T00:14:15;72060.34;;;-146.40;80.43
13033;BME280;6583;42.632;23.298;2023-01-30T00:16:42;72058.31;;;-146.40;80.89
13033;BME280;6583;42.632;23.298;2023-01-30T00:19:10;72062.38;;;-146.40;80.37
13033;BME280;6583;42.632;23.298;2023-01-30T00:21:36;72054.25;;;-146.40;80.25
13033;BME280;6583;42.632;23.298;2023-01-30T00:24:03;72044.16;;;-146.40;79.70
13033;BME280;6583;42.632;23.298;2023-01-30T00:26:30;72056.28;;;-146.40;79.40
13033;BME280;6583;42.632;23.298;2023-01-30T00:28:56;72046.16;;;-146.40;79.45
13033;BME280;6583;42.632;23.298;2023-01-30T00:31:23;72040.09;;;-146.40;78.93
13033;BME280;6583;42.632;23.298;2023-01-30T00:33:50;72048.19;;;-146.40;78.69
13033;BME280;6583;42.632;23.298;2023-01-30T00:36:18;72060.34;;;-146.40;77.55
13033;BME280;6583;42.632;23.298;2023-01-30T00:38:44;72072.47;;;-146.40;77.71
13033;BME280;6583;42.632;23.298;2023-01-30T00:41:11;72076.53;;;-146.40;77.66
13033;BME280;6583;42.632;23.298;2023-01-30T00:43:39;72068.44;;;-146.40;78.11
13033;BME280;6583;42.632;23.298;2023-01-30T00:46:25;72062.38;;;-146.40;77.90
13033;BME280;6583;42.632;23.298;2023-01-30T00:49:11;72062.38;;;-146.40;78.72
13033;BME280;6583;42.632;23.298;2023-01-30T00:51:39;72050.22;;;-146.40;78.77
13033;BME280;6583;42.632;23.298;2023-01-30T00:54:06;72064.38;;;-146.40;77.46
13033;BME280;6583;42.632;23.298;2023-01-30T00:56:32;72060.34;;;-146.40;78.19
13033;BME280;6583;42.632;23.298;2023-01-30T00:58:59;72056.28;;;-146.40;77.54
13033;BME280;6583;42.632;23.298;2023-01-30T01:01:26;72080.56;;;-146.40;77.09
13033;BME280;6583;42.632;23.298;2023-01-30T01:03:53;72072.47;;;-146.40;77.72
13033;BME280;6583;42.632;23.298;2023-01-30T01:06:19;72084.63;;;-146.40;78.07
13033;BME280;6583;42.632;23.298;2023-01-30T01:08:47;72072.47;;;-146.40;78.69
13033;BME280;6583;42.632;23.298;2023-01-30T01:11:14;72076.53;;;-146.40;79.11
13033;BME280;6583;42.632;23.298;2023-01-30T01:13:49;72090.69;;;-146.40;77.87
13033;BME280;6583;42.632;23.298;2023-01-30T01:16:16;72072.47;;;-146.40;78.64
13033;BME280;6583;42.632;23.298;2023-01-30T01:18:43;72074.50;;;-146.40;78.82
13033;BME280;6583;42.632;23.298;2023-01-30T01:21:09;72068.44;;;-146.40;78.90
13033;BME280;6583;42.632;23.298;2023-01-30T01:23:36;72050.22;;;-146.40;79.12
13033;BME280;6583;42.632;23.298;2023-01-30T01:26:04;72042.13;;;-146.40;79.01
13033;BME280;6583;42.632;23.298;2023-01-30T01:28:31;72044.16;;;-146.40;78.48
13033;BME280;6583;42.632;23.298;2023-01-30T01:30:57;72044.16;;;-146.40;77.68
13033;BME280;6583;42.632;23.298;2023-01-30T01:33:25;72046.16;;;-146.40;77.81
13033;BME280;6583;42.632;23.298;2023-01-30T01:35:54;72054.25;;;-146.40;77.79
13033;BME280;6583;42.632;23.298;2023-01-30T01:38:21;72060.34;;;-146.40;77.68
13033;BME280;6583;42.632;23.298;2023-01-30T01:40:47;72046.16;;;-146.40;76.86
13033;BME280;6583;42.632;23.298;2023-01-30T01:43:37;72058.31;;;-146.40;77.82
13033;BME280;6583;42.632;23.298;2023-01-30T01:46:08;72064.38;;;-146.40;77.84
13033;BME280;6583;42.632;23.298;2023-01-30T01:48:39;72056.28;;;-146.40;78.18
13033;BME280;6583;42.632;23.298;2023-01-30T01:51:10;72048.19;;;-146.40;77.10
13033;BME280;6583;42.632;23.298;2023-01-30T01:53:41;72048.19;;;-146.40;77.70
13033;BME280;6583;42.632;23.298;2023-01-30T01:56:13;72044.16;;;-146.40;77.86
13033;BME280;6583;42.632;23.298;2023-01-30T01:58:44;72040.09;;;-146.40;77.75
13033;BME280;6583;42.632;23.298;2023-01-30T02:01:13;72048.19;;;-146.40;77.06
13033;BME280;6583;42.632;23.298;2023-01-30T02:03:43;72046.16;;;-146.40;77.80
13033;BME280;6583;42.632;23.298;2023-01-30T02:06:11;72052.25;;;-146.40;77.55
13033;BME280;6583;42.632;23.298;2023-01-30T02:08:43;72064.38;;;-146.40;77.89
13033;BME280;6583;42.632;23.298;2023-01-30T02:11:13;72076.53;;;-146.40;77.73
13033;BME280;6583;42.632;23.298;2023-01-30T02:13:44;72096.78;;;-146.40;78.44
13033;BME280;6583;42.632;23.298;2023-01-30T02:16:11;72119.03;;;-146.40;79.44
13033;BME280;6583;42.632;23.298;2023-01-30T02:18:40;72129.16;;;-146.40;79.92
13033;BME280;6583;42.632;23.298;2023-01-30T02:24:43;72151.44;;;-146.40;80.23
13033;BME280;6583;42.632;23.298;2023-01-30T02:27:35;72159.53;;;-146.40;80.47
13033;BME280;6583;42.632;23.298;2023-01-30T02:33:07;72137.25;;;-146.40;81.19
13033;BME280;6583;42.632;23.298;2023-01-30T02:35:41;72129.16;;;-146.40;81.18
13033;BME280;6583;42.632;23.298;2023-01-30T02:38:23;72121.06;;;-146.40;81.09
13033;BME280;6583;42.632;23.298;2023-01-30T02:41:00;72117.00;;;-146.40;80.79
13033;BME280;6583;42.632;23.298;2023-01-30T02:43:37;72112.97;;;-146.40;80.51
13033;BME280;6583;42.632;23.298;2023-01-30T02:46:12;72123.09;;;-146.40;79.69
13033;BME280;6583;42.632;23.298;2023-01-30T02:48:44;72117.00;;;-146.40;79.68
13033;BME280;6583;42.632;23.298;2023-01-30T02:51:16;72102.84;;;-146.40;80.05
13033;BME280;6583;42.632;23.298;2023-01-30T02:53:45;72108.91;;;-146.40;79.60
13033;BME280;6583;42.632;23.298;2023-01-30T02:56:13;72104.88;;;-146.40;80.55
13033;BME280;6583;42.632;23.298;2023-01-30T02:58:42;72112.97;;;-146.40;80.27
13033;BME280;6583;42.632;23.298;2023-01-30T03:01:30;72129.16;;;-146.40;80.29
13033;BME280;6583;42.632;23.298;2023-01-30T03:04:10;72137.25;;;-146.40;80.59
13033;BME280;6583;42.632;23.298;2023-01-30T03:07:04;72137.25;;;-146.40;80.19
13033;BME280;6583;42.632;23.298;2023-01-30T03:09:43;72115.00;;;-146.40;80.88
13033;BME280;6583;42.632;23.298;2023-01-30T03:12:17;72145.34;;;-146.40;79.96
13033;BME280;6583;42.632;23.298;2023-01-30T03:14:51;72131.19;;;-146.40;80.36
13033;BME280;6583;42.632;23.298;2023-01-30T03:17:21;72112.97;;;-146.40;80.83
13033;BME280;6583;42.632;23.298;2023-01-30T03:19:54;72094.75;;;-146.40;80.56
13033;BME280;6583;42.632;23.298;2023-01-30T03:22:21;72104.88;;;-146.40;79.88
13033;BME280;6583;42.632;23.298;2023-01-30T03:24:48;72110.94;;;-146.40;79.60
13033;BME280;6583;42.632;23.298;2023-01-30T03:27:15;72108.91;;;-146.40;79.79
13033;BME280;6583;42.632;23.298;2023-01-30T03:29:42;72112.97;;;-146.40;80.21
13033;BME280;6583;42.632;23.298;2023-01-30T03:32:08;72108.91;;;-146.40;80.63
13033;BME280;6583;42.632;23.298;2023-01-30T03:34:35;72112.97;;;-146.40;80.82
13033;BME280;6583;42.632;23.298;2023-01-30T03:37:03;72112.97;;;-146.40;80.88
13033;BME280;6583;42.632;23.298;2023-01-30T03:39:30;72098.78;;;-146.40;80.61
13033;BME280;6583;42.632;23.298;2023-01-30T03:41:57;72102.84;;;-146.40;80.74
13033;BME280;6583;42.632;23.298;2023-01-30T03:44:24;72090.69;;;-146.40;80.34
13033;BME280;6583;42.632;23.298;2023-01-30T03:46:50;72104.88;;;-146.40;80.50
13033;BME280;6583;42.632;23.298;2023-01-30T03:49:17;72104.88;;;-146.40;80.34
13033;BME280;6583;42.632;23.298;2023-01-30T03:51:45;72104.88;;;-146.40;80.32
13033;BME280;6583;42.632;23.298;2023-01-30T03:54:13;72102.84;;;-146.40;80.67
13033;BME280;6583;42.632;23.298;2023-01-30T03:56:39;72112.97;;;-146.40;80.50
13033;BME280;6583;42.632;23.298;2023-01-30T03:59:06;72102.84;;;-146.40;80.45
13033;BME280;6583;42.632;23.298;2023-01-30T04:01:33;72104.88;;;-146.40;80.36
13033;BME280;6583;42.632;23.298;2023-01-30T04:03:59;72115.00;;;-146.40;80.20
13033;BME280;6583;42.632;23.298;2023-01-30T04:06:26;72115.00;;;-146.40;80.16
13033;BME280;6583;42.632;23.298;2023-01-30T04:08:53;72110.94;;;-146.40;80.80
13033;BME280;6583;42.632;23.298;2023-01-30T04:11:21;72104.88;;;-146.40;80.43
13033;BME280;6583;42.632;23.298;2023-01-30T04:13:47;72100.81;;;-146.40;80.54
13033;BME280;6583;42.632;23.298;2023-01-30T04:16:16;72096.78;;;-146.40;80.13
13033;BME280;6583;42.632;23.298;2023-01-30T04:18:43;72104.88;;;-146.40;79.59
13033;BME280;6583;42.632;23.298;2023-01-30T04:21:09;72100.81;;;-146.40;79.76
13033;BME280;6583;42.632;23.298;2023-01-30T04:23:36;72084.63;;;-146.40;80.13
13033;BME280;6583;42.632;23.298;2023-01-30T04:26:03;72088.69;;;-146.40;79.90
13033;BME280;6583;42.632;23.298;2023-01-30T04:28:31;72072.47;;;-146.40;79.63
13033;BME280;6583;42.632;23.298;2023-01-30T04:30:58;72066.41;;;-146.40;79.11
13033;BME280;6583;42.632;23.298;2023-01-30T04:33:25;72068.44;;;-146.40;78.88
13033;BME280;6583;42.632;23.298;2023-01-30T04:35:52;72072.47;;;-146.40;78.54
13033;BME280;6583;42.632;23.298;2023-01-30T04:38:19;72072.47;;;-146.40;79.01
13033;BME280;6583;42.632;23.298;2023-01-30T04:40:49;72060.34;;;-146.40;78.96
13033;BME280;6583;42.632;23.298;2023-01-30T04:43:16;72060.34;;;-146.40;79.37
13033;BME280;6583;42.632;23.298;2023-01-30T04:45:45;72064.38;;;-146.40;78.28
13033;BME280;6583;42.632;23.298;2023-01-30T04:48:12;72056.28;;;-146.40;78.57
13033;BME280;6583;42.632;23.298;2023-01-30T04:50:40;72054.25;;;-146.40;78.81
13033;BME280;6583;42.632;23.298;2023-01-30T04:53:07;72054.25;;;-146.40;78.80
13033;BME280;6583;42.632;23.298;2023-01-30T04:55:35;72056.28;;;-146.40;78.74
13033;BME280;6583;42.632;23.298;2023-01-30T04:58:02;72048.19;;;-146.40;78.45
13033;BME280;6583;42.632;23.298;2023-01-30T05:00:29;72068.44;;;-146.40;78.74
13033;BME280;6583;42.632;23.298;2023-01-30T05:02:57;72064.38;;;-146.40;79.20
13033;BME280;6583;42.632;23.298;2023-01-30T05:05:24;72064.38;;;-146.40;79.75
13033;BME280;6583;42.632;23.298;2023-01-30T05:07:52;72066.41;;;-146.40;79.71
13033;BME280;6583;42.632;23.298;2023-01-30T05:10:19;72070.47;;;-146.40;79.86
13033;BME280;6583;42.632;23.298;2023-01-30T05:12:46;72064.38;;;-146.40;80.35
13033;BME280;6583;42.632;23.298;2023-01-30T05:15:13;72066.41;;;-146.40;79.99
13033;BME280;6583;42.632;23.298;2023-01-30T05:17:39;72064.38;;;-146.40;80.22
13033;BME280;6583;42.632;23.298;2023-01-30T05:20:10;72064.38;;;-146.40;80.43
13033;BME280;6583;42.632;23.298;2023-01-30T05:22:38;72072.47;;;-146.40;80.18
13033;BME280;6583;42.632;23.298;2023-01-30T05:25:05;72068.44;;;-146.40;80.55
13033;BME280;6583;42.632;23.298;2023-01-30T05:27:32;72072.47;;;-146.40;80.41
13033;BME280;6583;42.632;23.298;2023-01-30T05:29:59;72072.47;;;-146.40;80.14
13033;BME280;6583;42.632;23.298;2023-01-30T05:32:25;72066.41;;;-146.40;79.70
13033;BME280;6583;42.632;23.298;2023-01-30T05:34:54;72070.47;;;-146.40;80.39
13033;BME280;6583;42.632;23.298;2023-01-30T05:37:23;72072.47;;;-146.40;79.94
13033;BME280;6583;42.632;23.298;2023-01-30T05:39:49;72076.53;;;-146.40;79.56
13033;BME280;6583;42.632;23.298;2023-01-30T05:42:16;72082.59;;;-146.40;79.97
13033;BME280;6583;42.632;23.298;2023-01-30T05:44:43;72064.38;;;-146.40;79.70
13033;BME280;6583;42.632;23.298;2023-01-30T05:47:10;72066.41;;;-146.40;79.02
13033;BME280;6583;42.632;23.298;2023-01-30T05:49:36;72072.47;;;-146.40;78.97
13033;BME280;6583;42.632;23.298;2023-01-30T05:52:04;72096.78;;;-146.40;78.43
13033;BME280;6583;42.632;23.298;2023-01-30T05:54:33;72096.78;;;-146.40;78.99
13033;BME280;6583;42.632;23.298;2023-01-30T05:56:59;72094.75;;;-146.40;80.00
13033;BME280;6583;42.632;23.298;2023-01-30T05:59:26;72092.72;;;-146.40;80.17
13033;BME280;6583;42.632;23.298;2023-01-30T06:01:53;72110.94;;;-146.40;79.84
13033;BME280;6583;42.632;23.298;2023-01-30T06:04:19;72102.84;;;-146.40;80.67
13033;BME280;6583;42.632;23.298;2023-01-30T06:06:48;72092.72;;;-146.40;80.86
13033;BME280;6583;42.632;23.298;2023-01-30T06:09:14;72086.66;;;-146.40;80.94
13033;BME280;6583;42.632;23.298;2023-01-30T06:11:43;72084.63;;;-146.40;80.77
13033;BME280;6583;42.632;23.298;2023-01-30T06:14:09;72080.56;;;-146.40;80.80
13033;BME280;6583;42.632;23.298;2023-01-30T06:16:36;72078.56;;;-146.40;80.55
13033;BME280;6583;42.632;23.298;2023-01-30T06:19:03;72080.56;;;-146.40;80.68
13033;BME280;6583;42.632;23.298;2023-01-30T06:21:29;72072.47;;;-146.40;81.36
13033;BME280;6583;42.632;23.298;2023-01-30T06:23:56;72064.38;;;-146.40;80.90
13033;BME280;6583;42.632;23.298;2023-01-30T06:26:23;72064.38;;;-146.40;80.74
13033;BME280;6583;42.632;23.298;2023-01-30T06:28:51;72056.28;;;-146.40;80.86
13033;BME280;6583;42.632;23.298;2023-01-30T06:31:17;72058.31;;;-146.40;80.68
13033;BME280;6583;42.632;23.298;2023-01-30T06:33:44;72072.47;;;-146.40;80.71
13033;BME280;6583;42.632;23.298;2023-01-30T06:36:11;72084.63;;;-146.40;81.54
13033;BME280;6583;42.632;23.298;2023-01-30T06:38:38;72088.69;;;-146.40;81.30
13033;BME280;6583;42.632;23.298;2023-01-30T06:41:05;72088.69;;;-146.40;81.43
13033;BME280;6583;42.632;23.298;2023-01-30T06:43:32;72098.78;;;-146.40;81.80
13033;BME280;6583;42.632;23.298;2023-01-30T06:46:00;72102.84;;;-146.40;81.80
13033;BME280;6583;42.632;23.298;2023-01-30T06:48:26;72076.53;;;-146.40;82.42
13033;BME280;6583;42.632;23.298;2023-01-30T06:50:53;72092.72;;;-146.40;82.72
13033;BME280;6583;42.632;23.298;2023-01-30T06:53:20;72092.72;;;-146.40;82.43
13033;BME280;6583;42.632;23.298;2023-01-30T06:55:49;72084.63;;;-146.40;82.39
13033;BME280;6583;42.632;23.298;2023-01-30T06:58:16;72082.59;;;-146.40;82.17
13033;BME280;6583;42.632;23.298;2023-01-30T07:00:42;72098.78;;;-146.40;82.08
13033;BME280;6583;42.632;23.298;2023-01-30T07:03:12;72106.91;;;-146.40;82.08
13033;BME280;6583;42.632;23.298;2023-01-30T07:05:39;72100.81;;;-146.40;82.58
13033;BME280;6583;42.632;23.298;2023-01-30T07:08:06;72108.91;;;-146.40;82.56
13033;BME280;6583;42.632;23.298;2023-01-30T07:10:33;72094.75;;;-146.40;82.84
13033;BME280;6583;42.632;23.298;2023-01-30T07:13:00;72088.69;;;-146.40;82.96
13033;BME280;6583;42.632;23.298;2023-01-30T07:15:27;72108.91;;;-146.40;82.56
13033;BME280;6583;42.632;23.298;2023-01-30T07:17:54;72100.81;;;-146.40;82.58
13033;BME280;6583;42.632;23.298;2023-01-30T07:20:22;72117.00;;;-146.40;84.17
13033;BME280;6583;42.632;23.298;2023-01-30T07:22:49;72110.94;;;-146.40;84.84
13033;BME280;6583;42.632;23.298;2023-01-30T07:25:16;72119.03;;;-146.40;84.93
13033;BME280;6583;42.632;23.298;2023-01-30T07:27:43;72125.09;;;-146.40;85.26
13033;BME280;6583;42.632;23.298;2023-01-30T07:30:15;72104.88;;;-146.40;85.82
13033;BME280;6583;42.632;23.298;2023-01-30T07:32:42;72104.88;;;-146.40;85.25
13033;BME280;6583;42.632;23.298;2023-01-30T07:35:08;72104.88;;;-146.40;84.33
13033;BME280;6583;42.632;23.298;2023-01-30T07:37:36;72108.91;;;-146.40;83.28
13033;BME280;6583;42.632;23.298;2023-01-30T07:40:04;72104.88;;;-146.40;82.77
13033;BME280;6583;42.632;23.298;2023-01-30T07:42:31;72104.88;;;-146.40;83.08
13033;BME280;6583;42.632;23.298;2023-01-30T07:44:57;72100.81;;;-146.40;82.48
13033;BME280;6583;42.632;23.298;2023-01-30T07:47:24;72110.94;;;-146.40;81.84
13033;BME280;6583;42.632;23.298;2023-01-30T07:49:51;72098.78;;;-146.40;81.69
13033;BME280;6583;42.632;23.298;2023-01-30T07:52:17;72094.75;;;-146.40;81.14
13033;BME280;6583;42.632;23.298;2023-01-30T07:54:45;72104.88;;;-146.40;80.35
13033;BME280;6583;42.632;23.298;2023-01-30T07:57:12;72088.69;;;-146.40;80.27
13033;BME280;6583;42.632;23.298;2023-01-30T07:59:39;72074.50;;;-146.40;80.39
13033;BME280;6583;42.632;23.298;2023-01-30T08:02:07;72064.38;;;-146.40;80.01
13033;BME280;6583;42.632;23.298;2023-01-30T08:04:34;72050.22;;;-146.40;79.21
13033;BME280;6583;42.632;23.298;2023-01-30T08:07:01;72036.03;;;-146.40;79.57
13033;BME280;6583;42.632;23.298;2023-01-30T08:09:27;72023.91;;;-146.40;79.31
13033;BME280;6583;42.632;23.298;2023-01-30T08:11:55;72044.16;;;-146.40;78.62
13033;BME280;6583;42.632;23.298;2023-01-30T08:14:22;72046.16;;;-146.40;77.89
13033;BME280;6583;42.632;23.298;2023-01-30T08:16:49;72027.94;;;-146.40;77.45
13033;BME280;6583;42.632;23.298;2023-01-30T08:19:16;72025.94;;;-146.40;76.73
13033;BME280;6583;42.632;23.298;2023-01-30T08:21:43;72015.81;;;-146.40;76.65
13033;BME280;6583;42.632;23.298;2023-01-30T08:24:09;72009.72;;;-146.40;76.97
13033;BME280;6583;42.632;23.298;2023-01-30T08:26:36;72001.63;;;-146.40;77.00
13033;BME280;6583;42.632;23.298;2023-01-30T08:29:04;71995.56;;;-146.40;75.94
13033;BME280;6583;42.632;23.298;2023-01-30T08:31:31;71991.53;;;-146.40;75.25
13033;BME280;6583;42.632;23.298;2023-01-30T08:33:57;71985.44;;;-146.40;74.94
13033;BME280;6583;42.632;23.298;2023-01-30T08:36:24;71987.47;;;-146.40;74.71
13033;BME280;6583;42.632;23.298;2023-01-30T08:38:52;71971.28;;;-146.40;75.33
13033;BME280;6583;42.632;23.298;2023-01-30T08:41:18;71979.38;;;-146.40;74.01
13033;BME280;6583;42.632;23.298;2023-01-30T08:43:45;71989.50;;;-146.40;74.24
13033;BME280;6583;42.632;23.298;2023-01-30T08:46:13;71979.38;;;-146.40;74.62
13033;BME280;6583;42.632;23.298;2023-01-30T08:48:41;71977.34;;;-146.40;74.21
13033;BME280;6583;42.632;23.298;2023-01-30T08:51:09;71965.22;;;-146.40;74.06
13033;BME280;6583;42.632;23.298;2023-01-30T08:53:35;71957.09;;;-146.40;73.36
13033;BME280;6583;42.632;23.298;2023-01-30T08:56:02;71967.22;;;-146.40;73.40
13033;BME280;6583;42.632;23.298;2023-01-30T08:58:29;71965.22;;;-146.40;72.83
13033;BME280;6583;42.632;23.298;2023-01-30T09:00:56;71951.03;;;-146.40;73.83
13033;BME280;6583;42.632;23.298;2023-01-30T09:03:24;71924.72;;;-146.40;73.34
13033;BME280;6583;42.632;23.298;2023-01-30T09:05:53;71932.81;;;-146.40;71.88
13033;BME280;6583;42.632;23.298;2023-01-30T09:08:20;71922.69;;;-146.40;72.24
13033;BME280;6583;42.632;23.298;2023-01-30T09:10:47;71906.50;;;-146.40;71.23
13033;BME280;6583;42.632;23.298;2023-01-30T09:13:13;71898.41;;;-146.40;70.62
13033;BME280;6583;42.632;23.298;2023-01-30T09:15:41;71870.06;;;-146.40;70.46
13033;BME280;6583;42.632;23.298;2023-01-30T09:18:08;71857.94;;;-146.40;69.04
13033;BME280;6583;42.632;23.298;2023-01-30T09:20:36;71847.81;;;-146.40;67.53
13033;BME280;6583;42.632;23.298;2023-01-30T09:23:03;71857.94;;;-146.40;67.52
13033;BME280;6583;42.632;23.298;2023-01-30T09:25:29;71837.69;;;-146.40;68.15
13033;BME280;6583;42.632;23.298;2023-01-30T09:27:56;71813.41;;;-146.40;67.28
13033;BME280;6583;42.632;23.298;2023-01-30T09:30:23;71815.44;;;-146.40;65.93
13033;BME280;6583;42.632;23.298;2023-01-30T09:32:49;71823.53;;;-146.40;66.06
13033;BME280;6583;42.632;23.298;2023-01-30T09:35:16;71835.66;;;-146.40;67.41
13033;BME280;6583;42.632;23.298;2023-01-30T09:37:48;71829.59;;;-146.40;67.79
13033;BME280;6583;42.632;23.298;2023-01-30T09:40:18;71815.44;;;-146.40;67.21
13033;BME280;6583;42.632;23.298;2023-01-30T09:43:15;71819.47;;;-146.40;65.80
13033;BME280;6583;42.632;23.298;2023-01-30T09:45:59;71819.47;;;-146.40;65.22
13033;BME280;6583;42.632;23.298;2023-01-30T09:48:30;71815.44;;;-146.40;66.04
13033;BME280;6583;42.632;23.298;2023-01-30T09:51:32;71803.28;;;-146.40;65.08
13033;BME280;6583;42.632;23.298;2023-01-30T09:54:18;71809.34;;;-146.40;65.89
13033;BME280;6583;42.632;23.298;2023-01-30T09:59:44;71813.41;;;-146.40;65.22
13033;BME280;6583;42.632;23.298;2023-01-30T10:02:26;71793.16;;;-146.40;65.37
13033;BME280;6583;42.632;23.298;2023-01-30T10:04:55;71791.13;;;-146.40;64.75
13033;BME280;6583;42.632;23.298;2023-01-30T10:07:31;71805.31;;;-146.40;64.97
13033;BME280;6583;42.632;23.298;2023-01-30T10:10:06;71801.25;;;-146.40;64.27
13033;BME280;6583;42.632;23.298;2023-01-30T10:12:43;71793.16;;;-146.40;64.18
13033;BME280;6583;42.632;23.298;2023-01-30T10:15:24;71766.84;;;-146.40;64.86
13033;BME280;6583;42.632;23.298;2023-01-30T10:18:06;71766.84;;;-146.40;64.60
13033;BME280;6583;42.632;23.298;2023-01-30T10:20:42;71768.88;;;-146.40;65.01
13033;BME280;6583;42.632;23.298;2023-01-30T10:23:34;71752.69;;;-146.40;66.34
13033;BME280;6583;42.632;23.298;2023-01-30T10:26:10;71752.69;;;-146.40;65.60
13033;BME280;6583;42.632;23.298;2023-01-30T10:28:42;71758.75;;;-146.40;65.82
13033;BME280;6583;42.632;23.298;2023-01-30T10:31:15;71750.66;;;-146.40;66.45
13033;BME280;6583;42.632;23.298;2023-01-30T10:33:50;71760.78;;;-146.40;65.74
13033;BME280;6583;42.632;23.298;2023-01-30T10:36:24;71776.97;;;-146.40;65.47
13033;BME280;6583;42.632;23.298;2023-01-30T10:38:58;71776.97;;;-146.40;69.31
13033;BME280;6583;42.632;23.298;2023-01-30T10:41:30;71797.22;;;-146.40;73.56
13033;BME280;6583;42.632;23.298;2023-01-30T10:44:01;71813.41;;;-146.40;75.11
13033;BME280;6583;42.632;23.298;2023-01-30T10:46:53;71833.66;;;-146.40;76.24
13033;BME280;6583;42.632;23.298;2023-01-30T10:49:30;71827.56;;;-146.40;76.89
13033;BME280;6583;42.632;23.298;2023-01-30T10:52:11;71827.56;;;-146.40;76.77
13033;BME280;6583;42.632;23.298;2023-01-30T10:54:50;71819.47;;;-146.40;77.19
13033;BME280;6583;42.632;23.298;2023-01-30T10:57:26;71801.25;;;-146.40;77.60
13033;BME280;6583;42.632;23.298;2023-01-30T10:59:59;71809.34;;;-146.40;77.63
13033;BME280;6583;42.632;23.298;2023-01-30T11:02:36;71815.44;;;-146.40;77.62
13033;BME280;6583;42.632;23.298;2023-01-30T11:05:12;71803.28;;;-146.40;78.02
13033;BME280;6583;42.632;23.298;2023-01-30T11:07:41;71795.19;;;-146.40;77.89
13033;BME280;6583;42.632;23.298;2023-01-30T11:10:14;71809.34;;;-146.40;78.27
13033;BME280;6583;42.632;23.298;2023-01-30T11:12:42;71809.34;;;-146.40;78.25
13033;BME280;6583;42.632;23.298;2023-01-30T11:15:09;71807.34;;;-146.40;78.10
13033;BME280;6583;42.632;23.298;2023-01-30T11:17:38;71811.38;;;-146.40;78.60
13033;BME280;6583;42.632;23.298;2023-01-30T11:20:11;71789.13;;;-146.40;78.22
13033;BME280;6583;42.632;23.298;2023-01-30T11:22:45;71772.94;;;-146.40;77.62
13033;BME280;6583;42.632;23.298;2023-01-30T11:25:15;71785.06;;;-146.40;75.37
13033;BME280;6583;42.632;23.298;2023-01-30T11:27:51;71758.75;;;-146.40;73.83
13033;BME280;6583;42.632;23.298;2023-01-30T11:30:19;71738.53;;;-146.40;74.15
13033;BME280;6583;42.632;23.298;2023-01-30T11:32:47;71704.09;;;-146.40;72.78
13033;BME280;6583;42.632;23.298;2023-01-30T11:35:32;71704.09;;;-146.40;70.95
13033;BME280;6583;42.632;23.298;2023-01-30T11:38:11;71696.00;;;-146.40;69.18
13033;BME280;6583;42.632;23.298;2023-01-30T11:40:38;71696.00;;;-146.40;69.04
13033;BME280;6583;42.632;23.298;2023-01-30T11:43:11;71720.31;;;-146.40;67.99
13033;BME280;6583;42.632;23.298;2023-01-30T11:45:39;71694.00;;;-146.40;69.05
13033;BME280;6583;42.632;23.298;2023-01-30T11:48:13;71681.84;;;-146.40;67.92
13033;BME280;6583;42.632;23.298;2023-01-30T11:50:43;71659.59;;;-146.40;68.54
13033;BME280;6583;42.632;23.298;2023-01-30T11:53:19;71659.59;;;-146.40;66.12
13033;BME280;6583;42.632;23.298;2023-01-30T11:55:49;71637.31;;;-146.40;66.16
13033;BME280;6583;42.632;23.298;2023-01-30T11:58:17;71621.13;;;-146.40;66.02
13033;BME280;6583;42.632;23.298;2023-01-30T12:00:46;71615.06;;;-146.40;66.52
13033;BME280;6583;42.632;23.298;2023-01-30T12:03:15;71621.13;;;-146.40;65.08
13033;BME280;6583;42.632;23.298;2023-01-30T12:05:44;71613.03;;;-146.40;65.61
13033;BME280;6583;42.632;23.298;2023-01-30T12:08:21;71619.09;;;-146.40;65.36
13033;BME280;6583;42.632;23.298;2023-01-30T12:10:51;71594.81;;;-146.40;65.74
13033;BME280;6583;42.632;23.298;2023-01-30T12:13:23;71590.78;;;-146.40;66.13
13033;BME280;6583;42.632;23.298;2023-01-30T12:16:01;71604.94;;;-146.40;65.74
13033;BME280;6583;42.632;23.298;2023-01-30T12:18:33;71598.88;;;-146.40;66.86
13033;BME280;6583;42.632;23.298;2023-01-30T12:21:11;71576.59;;;-146.40;67.52
13033;BME280;6583;42.632;23.298;2023-01-30T12:23:44;71570.53;;;-146.40;66.12
13033;BME280;6583;42.632;23.298;2023-01-30T12:26:13;71558.38;;;-146.40;67.07
13033;BME280;6583;42.632;23.298;2023-01-30T12:28:48;71574.59;;;-146.40;65.83
13033;BME280;6583;42.632;23.298;2023-01-30T12:31:20;71570.53;;;-146.40;66.39
13033;BME280;6583;42.632;23.298;2023-01-30T12:33:48;71572.56;;;-146.40;67.39
13033;BME280;6583;42.632;23.298;2023-01-30T12:36:26;71586.72;;;-146.40;67.17
13033;BME280;6583;42.632;23.298;2023-01-30T12:39:05;71600.91;;;-146.40;67.26
13033;BME280;6583;42.632;23.298;2023-01-30T12:41:52;71602.91;;;-146.40;68.54
13033;BME280;6583;42.632;23.298;2023-01-30T12:44:35;71598.88;;;-146.40;67.96
13033;BME280;6583;42.632;23.298;2023-01-30T12:47:29;71586.72;;;-146.40;67.76
13033;BME280;6583;42.632;23.298;2023-01-30T12:50:13;71574.59;;;-146.40;67.27
13033;BME280;6583;42.632;23.298;2023-01-30T12:53:13;71562.44;;;-146.40;66.78
13033;BME280;6583;42.632;23.298;2023-01-30T12:55:52;71554.34;;;-146.40;66.85
13033;BME280;6583;42.632;23.298;2023-01-30T12:58:26;71538.16;;;-146.40;66.68
13033;BME280;6583;42.632;23.298;2023-01-30T13:01:04;71515.91;;;-146.40;66.22
13033;BME280;6583;42.632;23.298;2023-01-30T13:03:40;71538.16;;;-146.40;65.03
13033;BME280;6583;42.632;23.298;2023-01-30T13:27:20;71368.16;;;-146.40;58.21